Hovedside
METAR-TAF:

METAR-TAF

Lufthavner :

Conakry internasjonale lufthavn

Conakry, Guinea

breddegrad: 09-34N, lengdegrad: 013-37W, høyde over havet: 26 m

Gjeldene værobservasjon

Denne rapporten ble laget for 2 timer og 13 minutter siden, klokken 20:00 UTC
Vind 8 kt fra Vest
Temperatur 26°C
Luftfuktighet 84%
Trykk 1011 hPa
Sikt 10 km eller mer
Få skyer i en høyde av 1500 ft
Spredte skyer i en høyde av 11000 ft

METAR: GUCY 242000Z 28008KT 9999 FEW015 SCT110 26/23 Q1011 NOSIG

Tid: 22:13 (22:13 UTC)


TAF: fraværende

Værobservasjoner og værvarsel for over 4000 flyplasser (METAR- og TAF-rapporter).

Tilgjengelige stasjoner er representert av de røde og gule prikkene på kartet.

Hold musepekeren over prikken for å se navnet på stasjonen.

Klikk så for å se værobservasjoner og -varsler.

For å forandre kartet kan du klikke på den grønne knappen med svart kryss for å zoome inn, på den grønne knappen med strek for å zoome ut, eller på de grønne pilene for å se tilstøtende kart.


METAR-TAF: